createdAt,value
2017-12-03T00:00:10.716Z,98879.83
2017-12-03T00:02:39.008Z,98888.51
2017-12-03T00:05:07.289Z,98880.82
2017-12-03T00:07:35.972Z,98874.48
2017-12-03T00:10:04.273Z,98871.20
2017-12-03T00:12:32.557Z,98871.79
2017-12-03T00:15:00.862Z,98868.80
2017-12-03T00:17:29.110Z,98870.77
2017-12-03T00:19:57.399Z,98865.05
2017-12-03T00:22:26.465Z,98859.86
2017-12-03T00:24:54.744Z,98859.59
2017-12-03T00:27:23.036Z,98859.36
2017-12-03T00:29:51.329Z,98853.20
2017-12-03T00:32:19.612Z,98849.44
2017-12-03T00:34:47.920Z,98851.05
2017-12-03T00:37:16.212Z,98851.04
2017-12-03T00:39:44.521Z,98857.31
2017-12-03T00:42:12.828Z,98854.61
2017-12-03T00:44:41.233Z,98864.87
2017-12-03T00:47:09.642Z,98860.66
2017-12-03T00:49:38.167Z,98857.70
2017-12-03T00:52:06.879Z,98858.96
2017-12-03T00:54:35.192Z,98859.50
2017-12-03T00:57:03.656Z,98855.78
2017-12-03T00:59:32.182Z,98845.48
2017-12-03T01:02:00.629Z,98855.23
2017-12-03T01:04:28.984Z,98858.56
2017-12-03T01:06:57.308Z,98856.91
2017-12-03T01:09:26.366Z,98864.45
2017-12-03T01:11:54.707Z,98865.67
2017-12-03T01:14:22.999Z,98865.70
2017-12-03T01:16:51.277Z,98866.92
2017-12-03T01:19:19.592Z,98869.51
2017-12-03T01:21:48.877Z,98859.80
2017-12-03T01:24:17.181Z,98864.78
2017-12-03T01:26:45.496Z,98867.80
2017-12-03T01:29:13.789Z,98870.19
2017-12-03T01:31:42.082Z,98866.88
2017-12-03T01:34:10.374Z,98872.25
2017-12-03T01:36:38.657Z,98862.77
2017-12-03T01:39:07.709Z,98869.31
2017-12-03T01:41:35.986Z,98863.91
2017-12-03T01:44:04.265Z,98871.95
2017-12-03T01:46:32.548Z,98869.23
2017-12-03T01:49:00.825Z,98869.86
2017-12-03T01:51:29.114Z,98855.91
2017-12-03T01:53:57.408Z,98865.33
2017-12-03T01:56:25.689Z,98873.51
2017-12-03T01:58:54.760Z,98874.23
2017-12-03T02:01:23.044Z,98872.03
2017-12-03T02:03:51.337Z,98869.95
2017-12-03T02:06:20.464Z,98868.24
2017-12-03T02:08:49.909Z,98868.59
2017-12-03T02:11:18.197Z,98860.84
2017-12-03T02:13:46.485Z,98858.25
2017-12-03T02:16:15.547Z,98860.16
2017-12-03T02:18:43.849Z,98852.64
2017-12-03T02:21:12.136Z,98852.19
2017-12-03T02:23:40.438Z,98843.57
2017-12-03T02:26:08.720Z,98835.31
2017-12-03T02:28:36.997Z,98836.71
2017-12-03T02:31:05.277Z,98846.03
2017-12-03T02:33:33.561Z,98840.37
2017-12-03T02:36:01.846Z,98828.50
2017-12-03T02:38:30.120Z,98836.50
2017-12-03T02:40:58.401Z,98825.13
2017-12-03T02:43:26.680Z,98826.42
2017-12-03T02:45:54.952Z,98823.86
2017-12-03T02:48:23.236Z,98824.48
2017-12-03T02:50:51.510Z,98819.97
2017-12-03T02:53:19.788Z,98814.00
2017-12-03T02:55:48.068Z,98817.63
2017-12-03T02:58:16.352Z,98812.10
2017-12-03T03:00:44.628Z,98813.50
2017-12-03T03:03:12.905Z,98822.02
2017-12-03T03:05:41.200Z,98821.09
2017-12-03T03:08:10.248Z,98811.13
2017-12-03T03:10:38.532Z,98811.13
2017-12-03T03:13:06.830Z,98815.66
2017-12-03T03:15:35.104Z,98810.09
2017-12-03T03:18:04.132Z,98814.92
2017-12-03T03:20:32.408Z,98806.59
2017-12-03T03:23:01.470Z,98809.12
2017-12-03T03:25:29.747Z,98808.12
2017-12-03T03:27:58.036Z,98805.80
2017-12-03T03:30:26.325Z,98801.28
2017-12-03T03:32:54.623Z,98796.47
2017-12-03T03:35:22.900Z,98787.09
2017-12-03T03:37:51.190Z,98790.00
2017-12-03T03:40:19.468Z,98783.41
2017-12-03T03:42:47.749Z,98787.77
2017-12-03T03:45:16.036Z,98782.73
2017-12-03T03:47:44.332Z,98786.77
2017-12-03T03:50:12.608Z,98781.06
2017-12-03T03:52:40.896Z,98783.75
2017-12-03T03:55:09.180Z,98776.96
2017-12-03T03:57:37.460Z,98778.31
2017-12-03T04:00:06.504Z,98783.73
2017-12-03T04:02:34.788Z,98779.08
2017-12-03T04:05:03.059Z,98771.45
2017-12-03T04:07:31.340Z,98768.39
2017-12-03T04:09:59.623Z,98769.20
2017-12-03T04:12:27.905Z,98778.20
2017-12-03T04:14:56.196Z,98776.00
2017-12-03T04:17:24.474Z,98777.92
2017-12-03T04:19:52.761Z,98780.48
2017-12-03T04:22:21.037Z,98780.56
2017-12-03T04:24:50.612Z,98779.27
2017-12-03T04:27:18.894Z,98777.37
2017-12-03T04:29:47.179Z,98775.14
2017-12-03T04:32:15.453Z,98772.11
2017-12-03T04:34:43.742Z,98772.72
2017-12-03T04:37:12.038Z,98771.41
2017-12-03T04:39:40.312Z,98772.27
2017-12-03T04:42:08.597Z,98777.02
2017-12-03T04:44:36.887Z,98781.91
2017-12-03T04:47:05.170Z,98783.98
2017-12-03T04:49:33.456Z,98779.67
2017-12-03T04:52:01.750Z,98773.22
2017-12-03T04:54:30.031Z,98766.28
2017-12-03T04:56:58.320Z,98766.44
2017-12-03T04:59:26.604Z,98765.13
2017-12-03T05:01:54.889Z,98761.95
2017-12-03T05:04:23.193Z,98757.38
2017-12-03T05:06:51.478Z,98759.13
2017-12-03T05:09:19.760Z,98751.93
2017-12-03T05:11:48.050Z,98745.28
2017-12-03T05:14:16.329Z,98745.41
2017-12-03T05:16:44.614Z,98750.91
2017-12-03T05:19:12.891Z,98750.23
2017-12-03T05:21:41.171Z,98752.80
2017-12-03T05:24:09.453Z,98748.81
2017-12-03T05:26:40.726Z,98750.61
2017-12-03T05:29:10.284Z,98750.61
2017-12-03T05:31:38.580Z,98743.42
2017-12-03T05:34:06.856Z,98740.33
2017-12-03T05:36:35.153Z,98744.66
2017-12-03T05:39:03.436Z,98740.78
2017-12-03T05:41:32.484Z,98735.63
2017-12-03T05:44:00.758Z,98740.02
2017-12-03T05:46:29.037Z,98740.88
2017-12-03T05:48:57.322Z,98741.83
2017-12-03T05:51:25.604Z,98744.05
2017-12-03T05:53:53.882Z,98742.50
2017-12-03T05:56:22.177Z,98740.57
2017-12-03T05:58:50.460Z,98742.77
2017-12-03T06:01:19.504Z,98703.73
2017-12-03T06:03:47.784Z,98739.38
2017-12-03T06:06:16.064Z,98737.70
2017-12-03T06:08:44.349Z,98735.20
2017-12-03T06:11:12.626Z,98737.56
2017-12-03T06:13:40.926Z,98737.67
2017-12-03T06:16:09.668Z,98741.45
2017-12-03T06:18:37.952Z,98737.66
2017-12-03T06:21:06.232Z,98738.64
2017-12-03T06:23:34.516Z,98728.74
2017-12-03T06:26:02.809Z,98732.34
2017-12-03T06:28:31.146Z,98727.58
2017-12-03T06:30:59.425Z,98722.67
2017-12-03T06:33:27.696Z,98723.39
2017-12-03T06:35:55.980Z,98729.60
2017-12-03T06:38:24.252Z,98726.17
2017-12-03T06:40:52.529Z,98723.89
2017-12-03T06:43:20.813Z,98715.25
2017-12-03T06:45:49.865Z,98716.66
2017-12-03T06:48:18.150Z,98711.58
2017-12-03T06:50:46.434Z,98714.81
2017-12-03T06:53:14.724Z,98721.16
2017-12-03T06:55:43.000Z,98729.63
2017-12-03T06:58:11.284Z,98729.66
2017-12-03T07:00:39.577Z,98730.72
2017-12-03T07:03:07.876Z,98717.53
2017-12-03T07:05:36.169Z,98724.10
2017-12-03T07:08:04.472Z,98714.95
2017-12-03T07:10:32.753Z,98720.64
2017-12-03T07:13:01.065Z,98719.55
2017-12-03T07:15:29.371Z,98715.77
2017-12-03T07:17:57.657Z,98715.66
2017-12-03T07:20:26.716Z,98720.50
2017-12-03T07:22:56.084Z,98717.30
2017-12-03T07:25:24.361Z,98723.25
2017-12-03T07:27:52.649Z,98718.53
2017-12-03T07:30:20.932Z,98720.30
2017-12-03T07:32:49.220Z,98727.80
2017-12-03T07:35:18.253Z,98729.00
2017-12-03T07:37:46.548Z,98726.09
2017-12-03T07:40:14.840Z,98720.63
2017-12-03T07:42:43.126Z,98729.94
2017-12-03T07:45:11.412Z,98723.57
2017-12-03T07:47:39.704Z,98727.19
2017-12-03T07:50:07.993Z,98725.60
2017-12-03T07:52:36.277Z,98735.95
2017-12-03T07:55:04.572Z,98741.78
2017-12-03T07:57:32.863Z,98734.34
2017-12-03T08:00:01.150Z,98740.71
2017-12-03T08:02:29.439Z,98736.59
2017-12-03T08:04:57.722Z,98736.64
2017-12-03T08:07:26.009Z,98735.02
2017-12-03T08:09:54.296Z,98733.07
2017-12-03T08:12:22.589Z,98724.82
2017-12-03T08:14:51.644Z,98723.17
2017-12-03T08:17:19.947Z,98719.33
2017-12-03T08:19:48.251Z,98719.20
2017-12-03T08:22:16.528Z,98721.72
2017-12-03T08:24:44.845Z,98718.64
2017-12-03T08:27:13.141Z,98722.58
2017-12-03T08:29:42.294Z,98716.81
2017-12-03T08:32:10.576Z,98717.98
2017-12-03T08:34:38.871Z,98713.87
2017-12-03T08:37:07.164Z,98715.75
2017-12-03T08:39:35.483Z,98713.16
2017-12-03T08:42:03.775Z,98720.08
2017-12-03T08:44:32.094Z,98713.55
2017-12-03T08:47:01.842Z,98715.22
2017-12-03T08:49:30.884Z,98710.84
2017-12-03T08:51:59.170Z,98715.51
2017-12-03T08:54:27.472Z,98716.27
2017-12-03T08:56:55.775Z,98716.00
2017-12-03T08:59:24.066Z,98714.36
2017-12-03T09:01:52.856Z,98717.56
2017-12-03T09:04:21.148Z,98723.13
2017-12-03T09:06:49.428Z,98719.78
2017-12-03T09:09:17.710Z,98723.23
2017-12-03T09:11:46.062Z,98717.45
2017-12-03T09:14:14.356Z,98715.46
2017-12-03T09:16:43.125Z,98715.47
2017-12-03T09:19:11.417Z,98724.02
2017-12-03T09:21:39.705Z,98727.09
2017-12-03T09:24:07.997Z,98725.27
2017-12-03T09:26:36.294Z,98732.78
2017-12-03T09:29:04.581Z,98727.27
2017-12-03T09:31:33.632Z,98734.28
2017-12-03T09:34:01.914Z,98733.40
2017-12-03T09:36:30.205Z,98726.03
2017-12-03T09:38:58.496Z,98736.74
2017-12-03T09:41:26.782Z,98739.42
2017-12-03T09:43:55.084Z,98724.60
2017-12-03T09:46:23.379Z,98727.76
2017-12-03T09:48:51.660Z,98715.28
2017-12-03T09:51:19.955Z,98715.47
2017-12-03T09:53:48.251Z,98718.39
2017-12-03T09:56:18.201Z,98719.53
2017-12-03T09:58:46.485Z,98717.67
2017-12-03T10:01:14.777Z,98722.97
2017-12-03T10:03:43.077Z,98719.89
2017-12-03T10:06:11.355Z,98718.27
2017-12-03T10:08:39.636Z,98719.42
2017-12-03T10:11:09.205Z,98714.05
2017-12-03T10:13:37.477Z,98714.34
2017-12-03T10:16:05.781Z,98710.58
2017-12-03T10:18:34.079Z,98701.85
2017-12-03T10:21:02.369Z,98703.98
2017-12-03T10:23:30.656Z,98698.19
2017-12-03T10:25:58.954Z,98699.02
2017-12-03T10:28:27.252Z,98702.08
2017-12-03T10:30:55.549Z,98698.78
2017-12-03T10:33:23.866Z,98692.14
2017-12-03T10:35:52.913Z,98690.05
2017-12-03T10:38:21.198Z,98683.88
2017-12-03T10:40:49.476Z,98680.86
2017-12-03T10:43:17.809Z,98685.20
2017-12-03T10:45:46.919Z,98682.85
2017-12-03T10:48:15.209Z,98675.51
2017-12-03T10:50:43.487Z,98674.56
2017-12-03T10:53:11.772Z,98673.17
2017-12-03T10:55:40.316Z,98669.22
2017-12-03T10:58:08.832Z,98668.20
2017-12-03T11:00:38.786Z,98657.88
2017-12-03T11:03:08.442Z,98660.07
2017-12-03T11:05:36.734Z,98657.95
2017-12-03T11:08:05.029Z,98665.41
2017-12-03T11:10:33.340Z,98662.77
2017-12-03T11:13:01.628Z,98661.64
2017-12-03T11:15:29.952Z,98653.05
2017-12-03T11:17:58.942Z,98651.84
2017-12-03T11:20:27.275Z,98648.98
2017-12-03T11:22:55.552Z,98645.94
2017-12-03T11:25:23.843Z,98650.72
2017-12-03T11:27:53.812Z,98645.09
2017-12-03T11:30:22.866Z,98646.67
2017-12-03T11:32:51.145Z,98647.03
2017-12-03T11:35:20.492Z,98644.80
2017-12-03T11:37:50.565Z,98645.09
2017-12-03T11:40:18.982Z,98639.39
2017-12-03T11:42:48.945Z,98636.29
2017-12-03T11:45:17.220Z,98625.97
2017-12-03T11:47:45.709Z,98632.50
2017-12-03T11:50:13.992Z,98625.73
2017-12-03T11:52:42.360Z,98616.02
2017-12-03T11:55:10.649Z,98614.39
2017-12-03T11:57:38.941Z,98623.65
2017-12-03T12:00:07.230Z,98617.94
2017-12-03T12:02:36.277Z,98616.79
2017-12-03T12:05:04.578Z,98616.37
2017-12-03T12:07:32.888Z,98609.77
2017-12-03T12:10:01.180Z,98609.62
2017-12-03T12:12:29.450Z,98608.29
2017-12-03T12:14:57.731Z,98605.78
2017-12-03T12:17:26.025Z,98602.92
2017-12-03T12:19:54.310Z,98604.55
2017-12-03T12:22:22.594Z,98593.01
2017-12-03T12:24:50.869Z,98596.57
2017-12-03T12:27:19.157Z,98593.78
2017-12-03T12:29:47.514Z,98597.15
2017-12-03T12:32:15.809Z,98595.55
2017-12-03T12:34:44.105Z,98599.37
2017-12-03T12:37:12.445Z,98588.41
2017-12-03T12:39:40.728Z,98585.77
2017-12-03T12:42:09.022Z,98581.02
2017-12-03T12:44:37.411Z,98586.70
2017-12-03T12:47:05.702Z,98578.28
2017-12-03T12:49:33.993Z,98580.02
2017-12-03T12:52:02.325Z,98572.45
2017-12-03T12:54:30.613Z,98576.14
2017-12-03T12:56:58.910Z,98574.61
2017-12-03T12:59:27.256Z,98561.27
2017-12-03T13:01:55.622Z,98563.13
2017-12-03T13:04:23.909Z,98556.70
2017-12-03T13:06:52.229Z,98510.44
2017-12-03T13:09:21.279Z,98553.80
2017-12-03T13:11:49.565Z,98558.75
2017-12-03T13:14:17.880Z,98558.02
2017-12-03T13:16:47.193Z,98557.34
2017-12-03T13:19:16.974Z,98551.89
2017-12-03T13:21:46.024Z,98548.72
2017-12-03T13:24:14.316Z,98544.81
2017-12-03T13:26:43.249Z,98540.98
2017-12-03T13:29:12.302Z,98540.16
2017-12-03T13:31:40.586Z,98533.34
2017-12-03T13:34:08.893Z,98528.30
2017-12-03T13:36:37.183Z,98530.73
2017-12-03T13:39:05.466Z,98535.30
2017-12-03T13:41:33.760Z,98543.17
2017-12-03T13:44:02.049Z,98540.72
2017-12-03T13:46:30.369Z,98544.10
2017-12-03T13:48:58.737Z,98546.70
2017-12-03T13:51:27.057Z,98544.16
2017-12-03T13:53:55.351Z,98539.70
2017-12-03T13:56:23.635Z,98542.15
2017-12-03T13:58:51.933Z,98538.91
2017-12-03T14:01:20.252Z,98540.50
2017-12-03T14:03:48.551Z,98545.34
2017-12-03T14:06:16.832Z,98531.53
2017-12-03T14:08:45.148Z,98529.23
2017-12-03T14:11:13.641Z,98536.05
2017-12-03T14:13:41.935Z,98531.69
2017-12-03T14:16:10.266Z,98540.90
2017-12-03T14:18:38.588Z,98538.14
2017-12-03T14:21:06.885Z,98534.48
2017-12-03T14:23:35.193Z,98531.30
2017-12-03T14:26:03.518Z,98534.43
2017-12-03T14:28:31.845Z,98537.07
2017-12-03T14:31:00.153Z,98539.70
2017-12-03T14:33:29.228Z,98546.50
2017-12-03T14:35:57.543Z,98530.13
2017-12-03T14:38:26.580Z,98537.45
2017-12-03T14:40:54.860Z,98539.14
2017-12-03T14:43:23.209Z,98544.33
2017-12-03T14:45:51.566Z,98539.84
2017-12-03T14:48:19.938Z,98540.02
2017-12-03T14:50:48.244Z,98540.80
2017-12-03T14:53:16.541Z,98537.41
2017-12-03T14:55:44.832Z,98538.83
2017-12-03T14:58:13.764Z,98537.75
2017-12-03T15:00:42.058Z,98541.56
2017-12-03T15:03:10.376Z,98536.83
2017-12-03T15:05:38.677Z,98539.67
2017-12-03T15:08:07.745Z,98539.86
2017-12-03T15:10:36.048Z,98533.50
2017-12-03T15:13:05.227Z,98535.02
2017-12-03T15:15:33.697Z,98533.39
2017-12-03T15:18:02.156Z,98538.47
2017-12-03T15:20:30.489Z,98535.39
2017-12-03T15:22:59.649Z,98536.30
2017-12-03T15:25:27.994Z,98536.47
2017-12-03T15:27:56.282Z,98536.28
2017-12-03T15:30:24.593Z,98537.63
2017-12-03T15:32:52.889Z,98536.84
2017-12-03T15:35:21.364Z,98535.34
2017-12-03T15:37:49.727Z,98534.59
2017-12-03T15:40:18.243Z,98534.19
2017-12-03T15:42:46.577Z,98535.45
2017-12-03T15:45:16.187Z,98527.09
2017-12-03T15:47:44.489Z,98536.63
2017-12-03T15:50:12.861Z,98539.91
2017-12-03T15:52:41.152Z,98536.81
2017-12-03T15:55:09.447Z,98539.92
2017-12-03T15:57:37.965Z,98541.41
2017-12-03T16:00:06.297Z,98546.79
2017-12-03T16:02:34.675Z,98546.81
2017-12-03T16:05:03.207Z,98551.92
2017-12-03T16:07:31.641Z,98551.55
2017-12-03T16:10:01.347Z,98551.92
2017-12-03T16:12:29.863Z,98550.64
2017-12-03T16:14:58.224Z,98549.97
2017-12-03T16:17:26.695Z,98549.34
2017-12-03T16:19:55.379Z,98549.52
2017-12-03T16:22:24.224Z,98541.80
2017-12-03T16:24:53.863Z,98542.44
2017-12-03T16:27:22.389Z,98540.33
2017-12-03T16:29:52.134Z,98543.89
2017-12-03T16:32:21.353Z,98547.98
2017-12-03T16:34:50.911Z,98542.72
2017-12-03T16:37:20.081Z,98548.66
2017-12-03T16:39:49.778Z,98552.66
2017-12-03T16:42:19.674Z,98558.86
2017-12-03T16:44:49.262Z,98560.48
2017-12-03T16:47:19.104Z,98563.74
2017-12-03T16:49:48.965Z,98567.87
2017-12-03T16:52:18.727Z,98564.30
2017-12-03T16:54:48.422Z,98565.05
2017-12-03T16:57:18.054Z,98570.95
2017-12-03T16:59:48.530Z,98573.44
2017-12-03T17:02:18.138Z,98563.36
2017-12-03T17:04:47.636Z,98567.11
2017-12-03T17:07:17.160Z,98571.19
2017-12-03T17:09:46.930Z,98567.63
2017-12-03T17:12:16.692Z,98569.36
2017-12-03T17:14:46.375Z,98577.36
2017-12-03T17:17:16.191Z,98579.44
2017-12-03T17:19:45.975Z,98586.08
2017-12-03T17:22:15.836Z,98590.36
2017-12-03T17:24:45.804Z,98587.34
2017-12-03T17:27:15.787Z,98591.50
2017-12-03T17:29:45.556Z,98602.30
2017-12-03T17:32:15.296Z,98598.46
2017-12-03T17:34:45.110Z,98598.65
2017-12-03T17:37:14.862Z,98599.80
2017-12-03T17:39:45.391Z,98597.80
2017-12-03T17:42:15.200Z,98602.86
2017-12-03T17:44:45.034Z,98600.31
2017-12-03T17:47:14.820Z,98601.92
2017-12-03T17:49:45.173Z,98602.14
2017-12-03T17:52:15.816Z,98602.94
2017-12-03T17:54:46.673Z,98606.64
2017-12-03T17:57:16.498Z,98603.34
2017-12-03T17:59:46.356Z,98604.03
2017-12-03T18:02:16.079Z,98613.33
2017-12-03T18:04:45.891Z,98610.64
2017-12-03T18:07:15.768Z,98603.04
2017-12-03T18:09:45.554Z,98606.31
2017-12-03T18:12:15.410Z,98609.16
2017-12-03T18:14:45.159Z,98604.32
2017-12-03T18:17:15.036Z,98617.93
2017-12-03T18:19:44.947Z,98610.20
2017-12-03T18:22:15.635Z,98617.52
2017-12-03T18:24:45.699Z,98617.09
2017-12-03T18:27:15.720Z,98611.25
2017-12-03T18:29:46.002Z,98622.17
2017-12-03T18:32:15.985Z,98624.09
2017-12-03T18:34:46.008Z,98633.00
2017-12-03T18:37:15.922Z,98634.67
2017-12-03T18:39:45.978Z,98627.54
2017-12-03T18:42:16.038Z,98628.89
2017-12-03T18:44:46.074Z,98636.06
2017-12-03T18:47:21.395Z,98642.95
2017-12-03T18:49:53.462Z,98620.09
2017-12-03T18:52:23.398Z,98634.98
2017-12-03T18:54:54.395Z,98631.98
2017-12-03T18:57:25.225Z,98647.88
2017-12-03T18:59:55.320Z,98646.94
2017-12-03T19:02:25.295Z,98654.64
2017-12-03T19:04:55.338Z,98653.97
2017-12-03T19:07:25.513Z,98652.07
2017-12-03T19:09:55.422Z,98654.86
2017-12-03T19:12:25.341Z,98663.31
2017-12-03T19:14:55.208Z,98659.41
2017-12-03T19:17:25.043Z,98656.97
2017-12-03T19:19:54.876Z,98661.70
2017-12-03T19:22:25.475Z,98668.06
2017-12-03T19:24:57.164Z,98656.47
2017-12-03T19:27:28.239Z,98656.23
2017-12-03T19:29:58.056Z,98667.98
2017-12-03T19:32:28.259Z,98663.88
2017-12-03T19:35:00.661Z,98665.33
2017-12-03T19:37:31.337Z,98659.28
2017-12-03T19:40:03.355Z,98667.05
2017-12-03T19:42:33.224Z,98669.41
2017-12-03T19:45:03.133Z,98666.87
2017-12-03T19:47:33.101Z,98662.48
2017-12-03T19:50:03.789Z,98657.22
2017-12-03T19:52:34.111Z,98660.10
2017-12-03T19:55:04.071Z,98657.19
2017-12-03T19:57:33.933Z,98659.83
2017-12-03T20:00:03.911Z,98661.52
2017-12-03T20:02:34.035Z,98659.77
2017-12-03T20:05:04.148Z,98659.77
2017-12-03T20:07:34.209Z,98654.67
2017-12-03T20:10:05.775Z,98654.67
2017-12-03T20:12:35.999Z,98655.78
2017-12-03T20:15:05.891Z,98656.33
2017-12-03T20:17:36.704Z,98649.88
2017-12-03T20:20:07.515Z,98655.48
2017-12-03T20:22:37.690Z,98651.03
2017-12-03T20:25:07.724Z,98647.37
2017-12-03T20:27:37.843Z,98642.14
2017-12-03T20:30:08.026Z,98643.81
2017-12-03T20:32:38.115Z,98644.27
2017-12-03T20:35:08.287Z,98651.28
2017-12-03T20:37:38.365Z,98653.69
2017-12-03T20:40:13.635Z,98665.80
2017-12-03T20:42:44.365Z,98655.05
2017-12-03T20:45:14.401Z,98657.73
2017-12-03T20:47:44.494Z,98665.44
2017-12-03T20:50:14.539Z,98663.33
2017-12-03T20:52:44.455Z,98671.06
2017-12-03T20:55:15.268Z,98670.42
2017-12-03T20:57:45.540Z,98660.81
2017-12-03T21:00:15.552Z,98664.56
2017-12-03T21:02:45.552Z,98672.07
2017-12-03T21:05:15.552Z,98668.84
2017-12-03T21:07:45.438Z,98669.55
2017-12-03T21:10:16.142Z,98663.46
2017-12-03T21:12:46.121Z,98671.28
2017-12-03T21:15:16.169Z,98675.94
2017-12-03T21:17:46.153Z,98679.40
2017-12-03T21:20:15.962Z,98674.91
2017-12-03T21:22:46.588Z,98685.11
2017-12-03T21:25:16.451Z,98682.81
2017-12-03T21:27:46.937Z,98681.01
2017-12-03T21:30:17.765Z,98681.23
2017-12-03T21:32:48.467Z,98676.89
2017-12-03T21:35:18.338Z,98683.30
2017-12-03T21:37:49.055Z,98685.39
2017-12-03T21:40:19.546Z,98692.41
2017-12-03T21:42:50.055Z,98686.80
2017-12-03T21:45:19.951Z,98681.16
2017-12-03T21:47:50.488Z,98682.30
2017-12-03T21:50:20.020Z,98687.88
2017-12-03T21:52:49.493Z,98689.63
2017-12-03T21:55:18.944Z,98699.58
2017-12-03T21:57:48.061Z,98707.67
2017-12-03T22:00:18.186Z,98706.70
2017-12-03T22:02:46.643Z,98708.95
2017-12-03T22:05:14.952Z,98711.05
2017-12-03T22:07:43.292Z,98709.70
2017-12-03T22:10:11.593Z,98713.05
2017-12-03T22:12:39.899Z,98711.56
2017-12-03T22:15:08.197Z,98713.28
2017-12-03T22:17:36.518Z,98712.52
2017-12-03T22:20:04.816Z,98711.07
2017-12-03T22:22:33.106Z,98711.91
2017-12-03T22:25:01.397Z,98712.77
2017-12-03T22:27:29.744Z,98716.34
2017-12-03T22:29:58.036Z,98734.28
2017-12-03T22:32:26.321Z,98736.03
2017-12-03T22:34:54.604Z,98733.30
2017-12-03T22:37:22.882Z,98737.69
2017-12-03T22:39:51.179Z,98729.98
2017-12-03T22:42:19.884Z,98736.47
2017-12-03T22:44:48.277Z,98734.25
2017-12-03T22:47:16.559Z,98743.52
2017-12-03T22:49:44.832Z,98739.73
2017-12-03T22:52:13.178Z,98743.91
2017-12-03T22:54:41.465Z,98750.05
2017-12-03T22:57:09.761Z,98734.45
2017-12-03T22:59:38.045Z,98735.53
2017-12-03T23:02:06.332Z,98735.09
2017-12-03T23:04:34.631Z,98738.04
2017-12-03T23:07:02.952Z,98738.48
2017-12-03T23:09:31.252Z,98743.95
2017-12-03T23:11:59.556Z,98737.28
2017-12-03T23:14:27.841Z,98736.03
2017-12-03T23:16:56.123Z,98732.27
2017-12-03T23:19:25.159Z,98731.16
2017-12-03T23:21:53.617Z,98728.41
2017-12-03T23:24:27.145Z,98723.46
2017-12-03T23:26:55.419Z,98729.05
2017-12-03T23:29:23.704Z,98727.67
2017-12-03T23:31:51.985Z,98732.77
2017-12-03T23:34:20.279Z,98734.24
2017-12-03T23:36:48.764Z,98732.41
2017-12-03T23:39:17.085Z,98731.39
2017-12-03T23:41:45.365Z,98724.08
2017-12-03T23:44:13.654Z,98723.31
2017-12-03T23:46:41.958Z,98728.61
2017-12-03T23:49:10.243Z,98732.11
2017-12-03T23:51:38.561Z,98738.64
2017-12-03T23:54:06.844Z,98733.67
2017-12-03T23:56:35.130Z,98729.92
2017-12-03T23:59:03.413Z,98732.56
